createdAt,value
2022-12-23T00:01:57.152Z,0.80
2022-12-23T00:04:24.172Z,0.83
2022-12-23T00:06:50.844Z,0.70
2022-12-23T00:09:17.813Z,0.70
2022-12-23T00:12:04.637Z,0.90
2022-12-23T00:14:50.001Z,1.00
2022-12-23T00:17:22.657Z,0.77
2022-12-23T00:19:50.007Z,0.77
2022-12-23T00:22:16.932Z,1.10
2022-12-23T00:24:43.868Z,0.67
2022-12-23T00:27:10.621Z,0.80
2022-12-23T00:29:37.960Z,0.90
2022-12-23T00:32:05.196Z,0.70
2022-12-23T00:34:31.888Z,0.73
2022-12-23T00:36:58.876Z,1.27
2022-12-23T00:39:44.027Z,0.80
2022-12-23T00:42:29.509Z,0.67
2022-12-23T00:45:15.717Z,0.90
2022-12-23T00:48:05.443Z,0.80
2022-12-23T00:50:35.274Z,1.50
2022-12-23T00:53:02.082Z,0.70
2022-12-23T00:55:28.790Z,0.63
2022-12-23T00:57:55.698Z,0.60
2022-12-23T01:00:42.793Z,0.90
2022-12-23T01:03:32.904Z,0.60
2022-12-23T01:06:01.078Z,0.67
2022-12-23T01:08:28.647Z,0.80
2022-12-23T01:10:55.776Z,0.90
2022-12-23T01:13:22.578Z,0.80
2022-12-23T01:15:49.338Z,0.70
2022-12-23T01:18:15.999Z,0.70
2022-12-23T01:20:42.786Z,0.60
2022-12-23T01:23:09.414Z,0.90
2022-12-23T01:25:36.109Z,0.70
2022-12-23T01:28:02.957Z,1.03
2022-12-23T01:30:29.758Z,0.93
2022-12-23T01:32:56.407Z,0.80
2022-12-23T01:35:23.086Z,0.53
2022-12-23T01:37:49.932Z,0.60
2022-12-23T01:40:16.680Z,0.60
2022-12-23T01:42:43.565Z,0.50
2022-12-23T01:45:36.739Z,0.70
2022-12-23T01:48:15.922Z,0.60
2022-12-23T01:50:53.387Z,0.80
2022-12-23T01:53:20.361Z,0.80
2022-12-23T01:55:57.204Z,0.83
2022-12-23T01:58:34.935Z,0.80
2022-12-23T02:01:20.979Z,0.63
2022-12-23T02:03:49.989Z,0.50
2022-12-23T02:06:52.546Z,0.43
2022-12-23T02:09:27.112Z,0.60
2022-12-23T02:12:15.831Z,0.50
2022-12-23T02:15:35.057Z,0.40
2022-12-23T02:18:25.744Z,0.47
2022-12-23T02:21:20.769Z,0.60
2022-12-23T02:24:24.653Z,0.73
2022-12-23T02:27:30.499Z,0.80
2022-12-23T02:30:24.544Z,0.63
2022-12-23T02:33:14.109Z,0.63
2022-12-23T02:35:59.422Z,0.50
2022-12-23T02:38:28.353Z,0.57
2022-12-23T02:41:14.876Z,0.50
2022-12-23T02:44:03.973Z,0.77
2022-12-23T02:46:34.318Z,0.60
2022-12-23T02:49:16.320Z,0.63
2022-12-23T02:51:49.553Z,0.60
2022-12-23T02:54:20.724Z,0.80
2022-12-23T02:56:51.072Z,1.00
2022-12-23T02:59:22.948Z,0.47
2022-12-23T03:01:50.499Z,0.60
2022-12-23T03:04:17.375Z,0.40
2022-12-23T03:06:48.134Z,0.60
2022-12-23T03:09:24.820Z,0.43
2022-12-23T03:12:02.897Z,0.40
2022-12-23T03:14:35.787Z,0.50
2022-12-23T03:17:40.108Z,0.60
2022-12-23T03:20:31.364Z,0.80
2022-12-23T03:23:11.615Z,1.20
2022-12-23T03:25:45.207Z,0.80
2022-12-23T03:28:20.398Z,0.70
2022-12-23T03:30:52.690Z,0.83
2022-12-23T03:33:42.471Z,0.60
2022-12-23T03:36:18.263Z,0.40
2022-12-23T03:38:46.010Z,0.70
2022-12-23T03:41:25.511Z,3.63
2022-12-23T03:44:00.528Z,2.63
2022-12-23T03:46:45.923Z,1.77
2022-12-23T03:49:30.820Z,0.97
2022-12-23T03:52:03.678Z,2.10
2022-12-23T03:54:40.936Z,1.10
2022-12-23T03:57:08.627Z,1.10
2022-12-23T03:59:38.680Z,0.70
2022-12-23T04:02:08.418Z,0.70
2022-12-23T04:05:03.118Z,0.50
2022-12-23T04:07:41.273Z,0.50
2022-12-23T04:10:09.297Z,0.40
2022-12-23T04:12:37.821Z,0.47
2022-12-23T04:15:10.697Z,0.50
2022-12-23T04:17:39.945Z,0.67
2022-12-23T04:20:07.494Z,0.60
2022-12-23T04:22:34.502Z,0.57
2022-12-23T04:25:01.191Z,0.60
2022-12-23T04:27:28.088Z,0.87
2022-12-23T04:29:54.800Z,0.60
2022-12-23T04:32:21.712Z,0.90
2022-12-23T04:34:48.403Z,0.70
2022-12-23T04:37:15.047Z,0.60
2022-12-23T04:39:42.007Z,0.60
2022-12-23T04:42:08.732Z,0.70
2022-12-23T04:44:35.642Z,0.90
2022-12-23T04:47:02.368Z,0.60
2022-12-23T04:49:30.111Z,0.70
2022-12-23T04:51:57.046Z,0.87
2022-12-23T04:54:23.718Z,0.80
2022-12-23T04:56:50.617Z,0.70
2022-12-23T04:59:17.330Z,0.80
2022-12-23T05:01:44.580Z,0.77
2022-12-23T05:04:11.781Z,0.80
2022-12-23T05:06:38.599Z,0.90
2022-12-23T05:09:06.281Z,0.83
2022-12-23T05:11:37.112Z,0.80
2022-12-23T05:14:07.417Z,0.93
2022-12-23T05:16:34.271Z,0.70
2022-12-23T05:19:01.081Z,1.00
2022-12-23T05:21:28.003Z,1.10
2022-12-23T05:23:55.328Z,1.00
2022-12-23T05:26:22.320Z,0.80
2022-12-23T05:28:49.010Z,0.70
2022-12-23T05:31:16.997Z,0.97
2022-12-23T05:33:44.407Z,0.90
2022-12-23T05:36:11.776Z,0.83
2022-12-23T05:38:38.837Z,1.00
2022-12-23T05:41:06.142Z,0.93
2022-12-23T05:43:33.314Z,1.07
2022-12-23T05:46:01.107Z,1.40
2022-12-23T05:48:27.922Z,1.07
2022-12-23T05:50:54.724Z,1.10
2022-12-23T05:53:21.738Z,1.70
2022-12-23T05:55:48.585Z,1.17
2022-12-23T05:58:15.586Z,1.30
2022-12-23T06:00:42.457Z,1.40
2022-12-23T06:03:09.817Z,1.03
2022-12-23T06:05:38.786Z,0.83
2022-12-23T06:08:06.093Z,0.87
2022-12-23T06:10:33.077Z,0.83
2022-12-23T06:12:59.691Z,1.10
2022-12-23T06:15:26.588Z,1.10
2022-12-23T06:17:53.346Z,5.50
2022-12-23T06:20:21.076Z,2.40
2022-12-23T06:22:48.552Z,1.40
2022-12-23T06:25:15.348Z,1.20
2022-12-23T06:27:42.144Z,1.00
2022-12-23T06:30:10.066Z,1.00
2022-12-23T06:32:38.749Z,1.33
2022-12-23T06:35:07.725Z,3.53
2022-12-23T06:37:34.587Z,3.00
2022-12-23T06:40:01.516Z,1.40
2022-12-23T06:42:28.203Z,1.40
2022-12-23T06:44:55.224Z,1.00
2022-12-23T06:47:22.015Z,1.23
2022-12-23T06:49:49.384Z,0.90
2022-12-23T06:52:16.758Z,1.17
2022-12-23T06:54:43.430Z,0.90
2022-12-23T06:57:10.340Z,0.90
2022-12-23T06:59:37.222Z,1.07
2022-12-23T07:02:04.486Z,0.67
2022-12-23T07:04:31.547Z,0.83
2022-12-23T07:06:58.738Z,1.03
2022-12-23T07:09:26.277Z,0.90
2022-12-23T07:11:53.029Z,0.80
2022-12-23T07:14:19.823Z,0.90
2022-12-23T07:16:46.698Z,1.20
2022-12-23T07:19:13.533Z,1.83
2022-12-23T07:21:40.426Z,1.00
2022-12-23T07:24:07.663Z,1.00
2022-12-23T07:26:34.494Z,0.87
2022-12-23T07:29:01.953Z,0.70
2022-12-23T07:31:28.909Z,0.70
2022-12-23T07:33:55.910Z,1.90
2022-12-23T07:36:22.765Z,2.17
2022-12-23T07:38:51.499Z,1.23
2022-12-23T07:41:18.584Z,1.40
2022-12-23T07:43:45.722Z,1.10
2022-12-23T07:46:12.683Z,0.80
2022-12-23T07:48:42.866Z,1.30
2022-12-23T07:51:10.004Z,0.73
2022-12-23T07:53:36.779Z,0.87
2022-12-23T07:56:03.683Z,0.63
2022-12-23T07:58:30.779Z,0.90
2022-12-23T08:01:02.639Z,0.87
2022-12-23T08:03:30.038Z,1.00
2022-12-23T08:06:14.359Z,1.20
2022-12-23T08:08:43.999Z,0.80
2022-12-23T08:11:12.293Z,0.80
2022-12-23T08:13:41.185Z,0.67
2022-12-23T08:16:08.757Z,0.60
2022-12-23T08:18:37.912Z,0.50
2022-12-23T08:21:14.721Z,0.73
2022-12-23T08:23:43.363Z,0.50
2022-12-23T08:26:12.989Z,0.70
2022-12-23T08:28:40.967Z,1.20
2022-12-23T08:31:18.641Z,0.67
2022-12-23T08:33:47.908Z,0.53
2022-12-23T08:36:22.677Z,0.50
2022-12-23T08:38:52.370Z,0.37
2022-12-23T08:41:22.995Z,0.40
2022-12-23T08:43:50.451Z,0.40
2022-12-23T08:46:17.951Z,0.47
2022-12-23T08:48:49.179Z,0.50
2022-12-23T08:51:19.626Z,0.50
2022-12-23T08:53:46.610Z,0.50
2022-12-23T08:56:20.439Z,0.50
2022-12-23T08:58:50.849Z,0.40
2022-12-23T09:01:19.764Z,0.53
2022-12-23T09:03:47.569Z,0.60
2022-12-23T09:06:19.742Z,0.70
2022-12-23T09:08:50.703Z,1.30
2022-12-23T09:11:21.383Z,1.43
2022-12-23T09:13:48.522Z,1.57
2022-12-23T09:16:15.877Z,1.70
2022-12-23T09:18:42.834Z,2.00
2022-12-23T09:21:15.507Z,1.57
2022-12-23T09:23:43.049Z,1.40
2022-12-23T09:26:11.149Z,1.40
2022-12-23T09:28:40.042Z,1.30
2022-12-23T09:31:11.778Z,1.60
2022-12-23T09:33:39.289Z,1.13
2022-12-23T09:36:07.131Z,0.90
2022-12-23T09:38:34.351Z,0.63
2022-12-23T09:41:21.113Z,0.80
2022-12-23T09:44:12.854Z,1.33
2022-12-23T09:46:49.347Z,1.40
2022-12-23T09:49:18.662Z,1.13
2022-12-23T09:51:47.203Z,1.87
2022-12-23T09:54:29.468Z,1.63
2022-12-23T09:57:09.076Z,1.50
2022-12-23T10:00:03.033Z,1.13
2022-12-23T10:02:42.316Z,1.63
2022-12-23T10:05:24.408Z,2.07
2022-12-23T10:08:00.082Z,1.83
2022-12-23T10:10:45.603Z,1.97
2022-12-23T10:13:25.507Z,2.60
2022-12-23T10:15:55.069Z,2.03
2022-12-23T10:18:31.463Z,1.97
2022-12-23T10:21:07.548Z,2.27
2022-12-23T10:23:39.477Z,2.20
2022-12-23T10:26:23.231Z,3.10
2022-12-23T10:29:13.964Z,3.27
2022-12-23T10:31:56.876Z,2.93
2022-12-23T10:34:43.177Z,2.47
2022-12-23T10:37:35.802Z,2.20
2022-12-23T10:40:27.794Z,2.00
2022-12-23T10:43:19.065Z,2.00
2022-12-23T10:46:12.073Z,2.00
2022-12-23T10:49:06.104Z,2.00
2022-12-23T10:51:45.647Z,2.40
2022-12-23T10:54:20.291Z,3.10
2022-12-23T10:56:47.477Z,2.80
2022-12-23T10:59:20.625Z,2.70
2022-12-23T11:01:51.678Z,2.87
2022-12-23T11:04:24.832Z,2.63
2022-12-23T11:07:18.076Z,2.43
2022-12-23T11:09:52.318Z,1.87
2022-12-23T11:12:23.965Z,2.30
2022-12-23T11:14:54.448Z,2.33
2022-12-23T11:17:24.526Z,2.20
2022-12-23T11:20:11.128Z,1.97
2022-12-23T11:22:59.937Z,1.60
2022-12-23T11:25:43.407Z,1.63
2022-12-23T11:28:16.731Z,2.67
2022-12-23T11:31:24.123Z,2.03
2022-12-23T11:34:01.098Z,1.50
2022-12-23T11:36:29.927Z,2.60
2022-12-23T11:39:14.371Z,2.80
2022-12-23T11:41:50.001Z,1.73
2022-12-23T11:44:31.142Z,2.57
2022-12-23T11:46:58.173Z,3.30
2022-12-23T11:49:31.640Z,2.73
2022-12-23T11:52:05.757Z,3.70
2022-12-23T11:54:34.142Z,3.27
2022-12-23T11:57:05.807Z,3.23
2022-12-23T11:59:33.959Z,2.80
2022-12-23T12:02:06.060Z,2.77
2022-12-23T12:04:35.626Z,3.30
2022-12-23T12:07:05.667Z,2.23
2022-12-23T12:09:34.252Z,1.50
2022-12-23T12:12:17.451Z,1.10
2022-12-23T12:14:50.172Z,1.20
2022-12-23T12:17:35.998Z,1.40
2022-12-23T12:20:27.437Z,1.40
2022-12-23T12:23:06.518Z,1.20
2022-12-23T12:25:47.559Z,1.30
2022-12-23T12:28:22.482Z,1.63
2022-12-23T12:31:23.920Z,1.73
2022-12-23T12:34:00.308Z,1.97
2022-12-23T12:36:45.373Z,1.93
2022-12-23T12:39:43.350Z,1.80
2022-12-23T12:42:09.993Z,1.83
2022-12-23T12:44:45.973Z,1.67
2022-12-23T12:47:51.999Z,1.73
2022-12-23T12:50:13.784Z,1.33
2022-12-23T12:52:42.104Z,1.60
2022-12-23T12:55:22.455Z,1.53
2022-12-23T12:57:49.319Z,2.00
2022-12-23T13:00:22.010Z,1.57
2022-12-23T13:03:32.123Z,1.30
2022-12-23T13:06:18.707Z,1.50
2022-12-23T13:09:02.498Z,1.33
2022-12-23T13:11:45.198Z,1.07
2022-12-23T13:14:37.798Z,1.53
2022-12-23T13:17:19.601Z,1.03
2022-12-23T13:19:52.182Z,1.20
2022-12-23T13:22:28.345Z,1.20
2022-12-23T13:25:16.618Z,1.00
2022-12-23T13:28:18.192Z,1.20
2022-12-23T13:31:00.451Z,1.53
2022-12-23T13:34:23.044Z,3.50
2022-12-23T13:37:24.429Z,3.43
2022-12-23T13:40:29.282Z,3.50
2022-12-23T13:43:02.289Z,3.20
2022-12-23T13:45:35.659Z,3.10
2022-12-23T13:48:28.226Z,2.40
2022-12-23T13:51:28.971Z,1.87
2022-12-23T13:54:26.407Z,2.00
2022-12-23T13:57:16.236Z,2.70
2022-12-23T13:59:59.742Z,2.87
2022-12-23T14:02:42.016Z,2.43
2022-12-23T14:05:41.639Z,2.80
2022-12-23T14:08:25.920Z,2.13
2022-12-23T14:11:10.911Z,2.10
2022-12-23T14:13:51.661Z,2.10
2022-12-23T14:16:40.511Z,1.67
2022-12-23T14:19:27.217Z,2.03
2022-12-23T14:22:21.983Z,1.50
2022-12-23T14:25:21.427Z,1.50
2022-12-23T14:28:05.760Z,2.23
2022-12-23T14:30:40.391Z,2.90
2022-12-23T14:33:31.268Z,2.27
2022-12-23T14:36:23.306Z,2.80
2022-12-23T14:39:12.024Z,2.53
2022-12-23T14:41:53.516Z,2.03
2022-12-23T14:44:41.721Z,1.10
2022-12-23T14:47:31.460Z,0.60
2022-12-23T14:50:37.178Z,0.30
2022-12-23T14:53:27.361Z,0.37
2022-12-23T14:56:15.090Z,1.73
2022-12-23T14:58:50.823Z,0.83
2022-12-23T15:01:19.774Z,1.13
2022-12-23T15:03:57.572Z,0.77
2022-12-23T15:06:40.512Z,0.93
2022-12-23T15:09:09.604Z,0.80
2022-12-23T15:11:37.410Z,0.50
2022-12-23T15:14:10.077Z,0.50
2022-12-23T15:16:40.299Z,0.80
2022-12-23T15:19:25.471Z,0.60
2022-12-23T15:22:17.238Z,0.50
2022-12-23T15:24:48.050Z,0.50
2022-12-23T15:27:29.232Z,0.40
2022-12-23T15:29:56.891Z,0.30
2022-12-23T15:32:25.283Z,0.30
2022-12-23T15:34:56.546Z,0.30
2022-12-23T15:37:29.274Z,0.30
2022-12-23T15:40:06.217Z,0.20
2022-12-23T15:42:38.726Z,0.20
2022-12-23T15:45:30.557Z,0.10
2022-12-23T15:47:57.406Z,0.23
2022-12-23T15:50:24.398Z,0.80
2022-12-23T15:52:54.449Z,0.50
2022-12-23T15:55:35.234Z,0.43
2022-12-23T15:58:04.022Z,0.40
2022-12-23T16:00:41.657Z,1.00
2022-12-23T16:03:32.430Z,0.50
2022-12-23T16:06:26.732Z,0.20
2022-12-23T16:09:16.681Z,0.70
2022-12-23T16:12:15.806Z,0.40
2022-12-23T16:14:49.633Z,0.30
2022-12-23T16:17:23.872Z,0.43
2022-12-23T16:19:56.227Z,0.33
2022-12-23T16:22:33.110Z,0.50
2022-12-23T16:25:16.007Z,0.40
2022-12-23T16:27:44.784Z,0.33
2022-12-23T16:30:21.284Z,0.40
2022-12-23T16:32:59.699Z,1.30
2022-12-23T16:35:40.405Z,0.80
2022-12-23T16:38:33.378Z,0.50
2022-12-23T16:41:00.170Z,0.40
2022-12-23T16:43:26.883Z,0.23
2022-12-23T16:45:57.801Z,0.40
2022-12-23T16:48:40.091Z,0.43
2022-12-23T16:51:14.808Z,1.73
2022-12-23T16:53:41.729Z,0.60
2022-12-23T16:56:20.812Z,1.57
2022-12-23T16:58:48.311Z,1.20
2022-12-23T17:01:22.150Z,0.90
2022-12-23T17:03:49.588Z,0.60
2022-12-23T17:06:17.547Z,0.67
2022-12-23T17:08:44.493Z,0.63
2022-12-23T17:11:37.637Z,0.60
2022-12-23T17:14:10.374Z,0.50
2022-12-23T17:16:40.811Z,0.90
2022-12-23T17:19:07.580Z,0.53
2022-12-23T17:21:37.219Z,0.53
2022-12-23T17:24:17.433Z,0.50
2022-12-23T17:26:44.182Z,0.63
2022-12-23T17:29:12.748Z,0.50
2022-12-23T17:31:41.948Z,1.20
2022-12-23T17:34:23.875Z,0.80
2022-12-23T17:36:51.446Z,0.50
2022-12-23T17:39:19.376Z,0.67
2022-12-23T17:41:46.577Z,0.60
2022-12-23T17:44:14.838Z,0.63
2022-12-23T17:46:42.034Z,0.63
2022-12-23T17:49:08.953Z,0.70
2022-12-23T17:51:35.892Z,0.50
2022-12-23T17:54:04.579Z,0.80
2022-12-23T17:56:31.971Z,0.87
2022-12-23T17:58:58.926Z,1.00
2022-12-23T18:01:29.834Z,1.10
2022-12-23T18:03:58.799Z,0.90
2022-12-23T18:06:28.269Z,1.00
2022-12-23T18:08:57.299Z,1.00
2022-12-23T18:11:35.106Z,1.03
2022-12-23T18:14:03.242Z,0.90
2022-12-23T18:16:30.413Z,1.03
2022-12-23T18:18:57.373Z,0.90
2022-12-23T18:21:26.778Z,1.53
2022-12-23T18:23:55.136Z,1.47
2022-12-23T18:26:22.032Z,0.90
2022-12-23T18:28:48.807Z,1.13
2022-12-23T18:31:19.611Z,1.40
2022-12-23T18:33:46.918Z,1.20
2022-12-23T18:36:27.232Z,1.73
2022-12-23T18:38:54.697Z,1.40
2022-12-23T18:41:22.378Z,1.70
2022-12-23T18:43:50.426Z,1.97
2022-12-23T18:46:17.680Z,1.40
2022-12-23T18:48:44.448Z,2.00
2022-12-23T18:51:15.808Z,2.60
2022-12-23T18:53:43.541Z,1.70
2022-12-23T18:56:20.938Z,1.50
2022-12-23T18:58:48.221Z,1.60
2022-12-23T19:01:16.803Z,1.63
2022-12-23T19:03:44.409Z,2.20
2022-12-23T19:06:13.780Z,1.47
2022-12-23T19:08:41.708Z,2.27
2022-12-23T19:11:17.884Z,1.73
2022-12-23T19:13:45.519Z,1.87
2022-12-23T19:16:18.044Z,2.63
2022-12-23T19:18:46.812Z,2.10
2022-12-23T19:21:14.371Z,1.93
2022-12-23T19:23:41.363Z,1.37
2022-12-23T19:26:13.956Z,1.67
2022-12-23T19:28:41.506Z,1.80
2022-12-23T19:31:12.973Z,1.40
2022-12-23T19:33:42.145Z,1.80
2022-12-23T19:36:14.629Z,1.60
2022-12-23T19:38:41.864Z,2.73
2022-12-23T19:41:12.426Z,1.93
2022-12-23T19:43:40.031Z,2.03
2022-12-23T19:46:10.239Z,1.70
2022-12-23T19:48:37.936Z,2.10
2022-12-23T19:51:10.487Z,1.70
2022-12-23T19:53:38.379Z,1.60
2022-12-23T19:56:08.676Z,2.17
2022-12-23T19:58:39.420Z,2.07
2022-12-23T20:01:15.926Z,2.20
2022-12-23T20:03:44.049Z,2.00
2022-12-23T20:06:16.259Z,1.97
2022-12-23T20:08:43.774Z,1.77
2022-12-23T20:11:17.571Z,1.70
2022-12-23T20:13:45.174Z,1.63
2022-12-23T20:16:12.414Z,1.90
2022-12-23T20:18:39.545Z,2.30
2022-12-23T20:21:06.947Z,2.17
2022-12-23T20:23:34.643Z,1.77
2022-12-23T20:26:01.582Z,1.90
2022-12-23T20:28:29.115Z,2.00
2022-12-23T20:31:08.165Z,2.13
2022-12-23T20:33:39.089Z,1.40
2022-12-23T20:36:07.373Z,1.90
2022-12-23T20:38:35.576Z,1.83
2022-12-23T20:41:06.146Z,1.93
2022-12-23T20:43:34.893Z,2.43
2022-12-23T20:46:02.893Z,2.17
2022-12-23T20:48:34.082Z,1.80
2022-12-23T20:51:17.827Z,1.70
2022-12-23T20:53:45.910Z,1.90
2022-12-23T20:56:14.843Z,1.90
2022-12-23T20:59:02.536Z,1.70
2022-12-23T21:01:40.579Z,1.70
2022-12-23T21:04:16.357Z,2.20
2022-12-23T21:06:44.388Z,1.53
2022-12-23T21:09:13.029Z,1.40
2022-12-23T21:11:43.565Z,1.93
2022-12-23T21:14:10.954Z,1.70
2022-12-23T21:16:38.266Z,1.70
2022-12-23T21:19:07.553Z,1.37
2022-12-23T21:21:34.811Z,1.40
2022-12-23T21:24:04.692Z,1.17
2022-12-23T21:26:33.230Z,1.73
2022-12-23T21:29:02.045Z,1.27
2022-12-23T21:31:30.930Z,1.70
2022-12-23T21:33:58.203Z,1.23
2022-12-23T21:36:27.693Z,1.20
2022-12-23T21:38:54.937Z,1.70
2022-12-23T21:41:29.278Z,1.57
2022-12-23T21:43:57.714Z,1.87
2022-12-23T21:46:25.227Z,1.80
2022-12-23T21:48:52.282Z,1.43
2022-12-23T21:51:26.215Z,1.87
2022-12-23T21:53:55.300Z,1.90
2022-12-23T21:56:25.974Z,4.13
2022-12-23T21:59:02.077Z,2.83
2022-12-23T22:01:29.543Z,2.63
2022-12-23T22:03:56.879Z,3.13
2022-12-23T22:06:30.201Z,2.33
2022-12-23T22:08:57.420Z,1.90
2022-12-23T22:11:26.824Z,1.80
2022-12-23T22:13:55.029Z,2.10
2022-12-23T22:16:23.565Z,1.93
2022-12-23T22:18:51.546Z,1.53
2022-12-23T22:21:20.796Z,2.10
2022-12-23T22:23:49.705Z,2.30
2022-12-23T22:26:24.550Z,1.43
2022-12-23T22:28:52.707Z,1.90
2022-12-23T22:31:34.761Z,1.57
2022-12-23T22:34:02.094Z,1.70
2022-12-23T22:36:29.123Z,1.73
2022-12-23T22:38:58.018Z,4.37
2022-12-23T22:41:27.980Z,2.33
2022-12-23T22:43:55.794Z,2.03
2022-12-23T22:46:24.511Z,1.70
2022-12-23T22:48:52.428Z,1.60
2022-12-23T22:51:26.347Z,1.63
2022-12-23T22:53:53.975Z,3.03
2022-12-23T22:56:22.130Z,1.97
2022-12-23T22:58:50.133Z,2.50
2022-12-23T23:01:23.304Z,2.10
2022-12-23T23:03:57.189Z,2.53
2022-12-23T23:06:30.230Z,2.90
2022-12-23T23:08:58.204Z,1.87
2022-12-23T23:11:27.175Z,2.00
2022-12-23T23:13:55.137Z,1.83
2022-12-23T23:16:22.436Z,1.80
2022-12-23T23:18:51.831Z,1.63
2022-12-23T23:21:19.037Z,2.10
2022-12-23T23:23:46.442Z,2.63
2022-12-23T23:26:13.652Z,2.13
2022-12-23T23:28:41.922Z,1.80
2022-12-23T23:31:40.569Z,1.77
2022-12-23T23:33:58.087Z,1.50
2022-12-23T23:36:25.148Z,2.70
2022-12-23T23:38:52.113Z,1.80
2022-12-23T23:41:23.178Z,2.30
2022-12-23T23:43:51.512Z,1.83
2022-12-23T23:46:18.794Z,1.90
2022-12-23T23:48:45.633Z,1.57
2022-12-23T23:51:12.679Z,1.50
2022-12-23T23:53:40.580Z,1.30
2022-12-23T23:56:08.497Z,1.47
2022-12-23T23:58:36.637Z,2.20
